Time;durP1;ratioP1;P1;durP2;ratioP2;P2;SDS_P1;SDS_P2;PMS_P1;PMS_P2;Temp;Humidity;BMP_temperature;BMP_pressure;BME280_temperature;BME280_humidity;BME280_pressure;Samples;Min_cycle;Max_cycle;Signal;HPM_P1;HPM_P2
2023/02/04 00:00:13;;;;;;;6.70;3.90;;;;;;;-0.29;90.39;99353.63;108019;1257;71395;-79
2023/02/04 00:02:41;;;;;;;4.30;3.90;;;;;;;-0.27;90.07;99359.89;107743;1260;67091;-78
2023/02/04 00:05:09;;;;;;;4.20;3.80;;;;;;;-0.28;89.91;99360.25;105714;1258;74196;-76
2023/02/04 00:07:38;;;;;;;4.50;3.40;;;;;;;-0.31;89.81;99358.36;105740;1261;59698;-76
2023/02/04 00:10:12;;;;;;;5.70;4.10;;;;;;;-0.36;89.85;99356.11;105591;1257;62259;-75
2023/02/04 00:12:40;;;;;;;3.90;3.40;;;;;;;-0.40;89.97;99353.62;105856;1258;74055;-76
2023/02/04 00:15:09;;;;;;;6.50;3.30;;;;;;;-0.41;90.23;99355.16;105699;1256;68794;-75
2023/02/04 00:17:38;;;;;;;4.90;4.00;;;;;;;-0.40;90.25;99350.79;105082;1257;1003661;-74
2023/02/04 00:20:06;;;;;;;4.00;3.00;;;;;;;-0.36;90.37;99349.11;105649;1257;60109;-74
2023/02/04 00:22:36;;;;;;;3.80;3.10;;;;;;;-0.30;90.40;99347.43;105735;1257;60961;-75
2023/02/04 00:25:05;;;;;;;4.30;3.90;;;;;;;-0.28;90.22;99348.02;105631;1261;72301;-75
2023/02/04 00:27:33;;;;;;;6.50;3.90;;;;;;;-0.31;90.04;99347.25;105818;1260;68468;-74
2023/02/04 00:30:03;;;;;;;3.80;3.50;;;;;;;-0.37;89.93;99344.89;105712;1260;73111;-75
2023/02/04 00:32:31;;;;;;;7.70;3.80;;;;;;;-0.43;89.86;99348.85;105666;1261;60229;-76
2023/02/04 00:35:03;;;;;;;3.20;2.90;;;;;;;-0.47;90.19;99345.23;105832;1257;60548;-75
2023/02/04 00:37:32;;;;;;;4.20;3.50;;;;;;;-0.50;90.25;99346.87;105762;1257;73826;-75
2023/02/04 00:40:00;;;;;;;3.90;3.50;;;;;;;-0.54;90.27;99343.00;105794;1257;67955;-75
2023/02/04 00:42:28;;;;;;;2.90;2.70;;;;;;;-0.57;90.28;99348.23;105640;1260;73612;-74
2023/02/04 00:44:58;;;;;;;3.20;2.90;;;;;;;-0.58;90.14;99345.60;105789;1257;59576;-75
2023/02/04 00:47:26;;;;;;;3.90;3.50;;;;;;;-0.59;90.32;99345.35;105612;1257;61321;-79
2023/02/04 00:49:56;;;;;;;4.30;3.90;;;;;;;-0.59;90.29;99340.30;105522;1263;73593;-75
2023/02/04 00:52:25;;;;;;;3.50;3.20;;;;;;;-0.62;90.31;99343.15;105468;1263;67954;-77
2023/02/04 00:54:53;;;;;;;4.60;3.80;;;;;;;-0.67;90.39;99339.11;105453;1257;73297;-74
2023/02/04 00:57:22;;;;;;;3.00;2.80;;;;;;;-0.76;90.43;99338.66;105711;1261;59693;-76
2023/02/04 00:59:50;;;;;;;4.00;3.30;;;;;;;-0.81;90.91;99338.02;105774;1256;60695;-74
2023/02/04 01:02:18;;;;;;;3.10;2.90;;;;;;;-0.81;90.97;99339.55;105846;1256;72958;-74
2023/02/04 01:04:48;;;;;;;2.90;2.70;;;;;;;-0.79;91.10;99339.52;105525;1260;67849;-75
2023/02/04 01:07:18;;;;;;;5.90;2.90;;;;;;;-0.76;91.04;99341.98;105767;1257;72980;-75
2023/02/04 01:09:46;;;;;;;2.80;2.60;;;;;;;-0.73;91.18;99340.04;105536;1257;60222;-76
2023/02/04 01:12:14;;;;;;;3.30;3.00;;;;;;;-0.72;91.20;99343.81;105700;1256;61307;-75
2023/02/04 01:14:43;;;;;;;3.50;3.20;;;;;;;-0.74;91.12;99345.42;107735;1256;72087;-76
2023/02/04 01:17:12;;;;;;;3.60;3.30;;;;;;;-0.78;91.18;99342.23;108249;1260;67876;-75
2023/02/04 01:19:40;;;;;;;3.20;2.90;;;;;;;-0.80;91.37;99344.38;108534;1256;72352;-77
2023/02/04 01:22:09;;;;;;;3.40;2.60;;;;;;;-0.78;91.44;99346.44;108119;1258;61864;-75
2023/02/04 01:24:37;;;;;;;4.30;3.40;;;;;;;-0.73;91.71;99346.04;106716;1260;61206;-76
2023/02/04 01:27:24;;;;;;;3.00;2.40;;;;;;;-0.68;91.77;99344.80;105838;1260;72998;-75
2023/02/04 01:29:53;;;;;;;3.20;2.70;;;;;;;-0.63;91.61;99338.14;105881;1256;68561;-76
2023/02/04 01:32:21;;;;;;;5.20;3.80;;;;;;;-0.60;91.58;99336.84;105909;1257;73378;-75
2023/02/04 01:34:49;;;;;;;4.70;2.90;;;;;;;-0.60;91.28;99334.77;105660;1257;59675;-76
2023/02/04 01:37:18;;;;;;;4.20;3.80;;;;;;;-0.63;91.18;99336.33;105611;1256;61533;-76
2023/02/04 01:39:46;;;;;;;4.00;3.60;;;;;;;-0.66;91.29;99332.02;105622;1257;72823;-76
2023/02/04 01:42:14;;;;;;;4.40;3.60;;;;;;;-0.70;91.34;99335.06;105761;1257;69690;-74
2023/02/04 01:44:43;;;;;;;3.30;3.00;;;;;;;-0.74;91.33;99338.30;105622;1262;75324;-73
2023/02/04 01:47:11;;;;;;;3.40;3.10;;;;;;;-0.76;91.68;99340.18;105697;1257;60013;-73
2023/02/04 01:49:40;;;;;;;3.50;3.20;;;;;;;-0.73;91.79;99338.88;105806;1256;59704;-73
2023/02/04 01:52:09;;;;;;;2.90;2.70;;;;;;;-0.73;91.63;99336.02;105766;1257;72957;-72
2023/02/04 01:54:38;;;;;;;4.20;2.70;;;;;;;-0.72;91.61;99336.27;105601;1257;68100;-75
2023/02/04 01:57:09;;;;;;;2.70;2.50;;;;;;;-0.74;91.56;99338.72;105725;1258;73175;-73
2023/02/04 01:59:41;;;;;;;2.90;2.60;;;;;;;-0.77;91.69;99339.45;105782;1257;61378;-73
2023/02/04 02:02:38;;;;;;;4.80;3.40;;;;;;;-0.79;91.67;99339.38;105646;1257;60498;-74
2023/02/04 02:05:09;;;;;;;3.60;2.90;;;;;;;-0.80;91.77;99333.45;105837;1260;73614;-76
2023/02/04 02:07:39;;;;;;;2.90;2.70;;;;;;;-0.76;92.13;99335.02;105750;1257;69675;-73
2023/02/04 02:10:08;;;;;;;3.00;2.80;;;;;;;-0.72;92.13;99333.98;105552;1260;72365;-74
2023/02/04 02:12:37;;;;;;;2.80;2.60;;;;;;;-0.68;92.11;99331.31;105833;1256;61482;-74
2023/02/04 02:15:06;;;;;;;3.20;2.70;;;;;;;-0.67;91.91;99336.77;105630;1256;61796;-74
2023/02/04 02:17:37;;;;;;;3.50;3.20;;;;;;;-0.68;91.79;99337.09;105806;1257;74543;-74
2023/02/04 02:20:08;;;;;;;5.00;3.30;;;;;;;-0.69;91.69;99338.86;105768;1260;67821;-74
2023/02/04 02:22:57;;;;;;;3.10;2.80;;;;;;;-0.73;91.83;99335.77;105588;1257;71949;-75
2023/02/04 02:25:26;;;;;;;3.50;3.20;;;;;;;-0.77;91.81;99339.00;105745;1257;62854;-75
2023/02/04 02:27:55;;;;;;;3.60;3.30;;;;;;;-0.81;91.88;99342.80;105859;1257;61706;-74
2023/02/04 02:30:23;;;;;;;4.20;3.10;;;;;;;-0.82;92.27;99344.71;105571;1262;74069;-77
2023/02/04 02:32:51;;;;;;;5.20;3.70;;;;;;;-0.82;92.50;99342.98;105676;1256;68911;-74
2023/02/04 02:35:20;;;;;;;3.10;2.80;;;;;;;-0.80;92.63;99339.01;105575;1257;73046;-74
2023/02/04 02:37:49;;;;;;;3.60;3.00;;;;;;;-0.76;92.82;99344.64;105857;1260;61234;-74
2023/02/04 02:40:18;;;;;;;2.90;2.70;;;;;;;-0.77;92.69;99346.52;105611;1257;61694;-78
2023/02/04 02:42:48;;;;;;;4.80;3.70;;;;;;;-0.80;92.83;99338.93;104855;1257;1003810;-76
2023/02/04 02:45:24;;;;;;;4.00;3.60;;;;;;;-0.84;92.78;99336.88;105543;1257;69061;-77
2023/02/04 02:47:52;;;;;;;4.10;3.30;;;;;;;-0.88;93.08;99345.39;105497;1257;72320;-77
2023/02/04 02:50:22;;;;;;;4.00;3.70;;;;;;;-0.89;93.16;99341.46;105526;1261;61980;-76
2023/02/04 02:52:52;;;;;;;3.40;3.10;;;;;;;-0.90;93.49;99337.48;104961;1260;1003052;-72
2023/02/04 02:55:22;;;;;;;5.10;3.50;;;;;;;-0.88;93.71;99339.38;105629;1257;75547;-72
2023/02/04 02:57:51;;;;;;;3.80;3.50;;;;;;;-0.84;93.83;99341.04;105524;1261;67492;-74
2023/02/04 03:00:24;;;;;;;3.80;3.30;;;;;;;-0.81;93.86;99341.02;105576;1257;73988;-74
2023/02/04 03:02:56;;;;;;;3.90;3.60;;;;;;;-0.79;93.68;99344.14;105689;1260;60309;-74
2023/02/04 03:05:24;;;;;;;5.00;3.70;;;;;;;-0.81;93.66;99342.05;105600;1257;62046;-74
2023/02/04 03:07:53;;;;;;;4.20;3.70;;;;;;;-0.89;93.72;99342.19;105851;1257;74050;-74
2023/02/04 03:10:22;;;;;;;4.30;3.90;;;;;;;-0.92;93.94;99346.35;105702;1257;69263;-74
2023/02/04 03:12:50;;;;;;;4.10;3.80;;;;;;;-0.92;93.97;99350.95;105571;1257;72315;-76
2023/02/04 03:15:18;;;;;;;4.20;3.80;;;;;;;-0.88;94.32;99347.64;105668;1257;61690;-74
2023/02/04 03:17:46;;;;;;;3.60;3.30;;;;;;;-0.81;94.47;99347.56;105736;1257;60722;-74
2023/02/04 03:20:15;;;;;;;3.90;3.50;;;;;;;-0.74;94.32;99346.88;105657;1257;75338;-75
2023/02/04 03:22:43;;;;;;;4.10;3.20;;;;;;;-0.73;94.12;99344.91;105793;1260;68946;-75
2023/02/04 03:25:12;;;;;;;3.70;3.40;;;;;;;-0.73;94.08;99346.60;105546;1257;71542;-74
2023/02/04 03:27:40;;;;;;;4.90;3.70;;;;;;;-0.75;93.92;99349.26;105680;1257;60513;-75
2023/02/04 03:30:10;;;;;;;8.40;6.30;;;;;;;-0.79;94.02;99352.02;105713;1257;60443;-76
2023/02/04 03:32:40;;;;;;;6.00;5.40;;;;;;;-0.79;94.07;99355.91;105681;1260;75700;-76
2023/02/04 03:35:08;;;;;;;5.70;4.80;;;;;;;-0.77;94.17;99357.08;105551;1261;69676;-74
2023/02/04 03:37:38;;;;;;;6.00;3.50;;;;;;;-0.73;94.14;99359.65;104881;1257;1003072;-75
2023/02/04 03:40:07;;;;;;;3.30;3.10;;;;;;;-0.73;94.11;99360.46;105894;1260;60534;-83
2023/02/04 03:42:37;;;;;;;3.00;2.80;;;;;;;-0.70;94.16;99360.91;105905;1256;62260;-76
2023/02/04 03:45:05;;;;;;;4.60;3.90;;;;;;;-0.68;94.03;99356.83;105769;1257;73424;-75
2023/02/04 03:47:35;;;;;;;5.20;2.90;;;;;;;-0.70;93.75;99364.14;105857;1260;68521;-76
2023/02/04 03:50:04;;;;;;;4.10;3.50;;;;;;;-0.73;93.69;99360.81;105775;1260;72290;-74
2023/02/04 03:52:32;;;;;;;4.50;3.40;;;;;;;-0.76;93.73;99367.32;105786;1257;60433;-73
2023/02/04 03:55:01;;;;;;;3.50;3.20;;;;;;;-0.78;93.74;99369.88;105647;1260;59579;-73
2023/02/04 03:57:29;;;;;;;4.20;3.80;;;;;;;-0.82;93.94;99368.92;105666;1257;73164;-72
2023/02/04 03:59:57;;;;;;;6.80;5.90;;;;;;;-0.83;93.92;99365.02;106847;1256;69108;-74
2023/02/04 04:02:25;;;;;;;6.40;4.50;;;;;;;-0.82;94.13;99366.73;109274;1257;71567;-74
2023/02/04 04:04:54;;;;;;;4.70;3.80;;;;;;;-0.82;93.82;99368.23;109284;1256;58151;-75
2023/02/04 04:07:22;;;;;;;7.10;5.50;;;;;;;-0.83;94.04;99375.73;109260;1256;59352;-74
2023/02/04 04:09:51;;;;;;;5.90;4.30;;;;;;;-0.84;93.79;99376.20;109151;1258;73798;-74
2023/02/04 04:12:19;;;;;;;6.00;5.00;;;;;;;-0.86;93.72;99377.07;109254;1256;68025;-72
2023/02/04 04:14:48;;;;;;;8.10;5.60;;;;;;;-0.88;93.68;99377.02;109169;1256;72136;-76
2023/02/04 04:17:16;;;;;;;10.60;7.90;;;;;;;-0.90;93.70;99378.65;109110;1256;59198;-76
2023/02/04 04:19:44;;;;;;;11.50;6.20;;;;;;;-0.88;93.91;99376.03;109144;1256;59277;-77
2023/02/04 04:22:12;;;;;;;7.20;5.40;;;;;;;-0.85;93.92;99380.09;109135;1256;72482;-76
2023/02/04 04:24:41;;;;;;;6.70;5.20;;;;;;;-0.81;94.13;99386.23;108273;1256;1002959;-75
2023/02/04 04:27:09;;;;;;;5.40;4.90;;;;;;;-0.72;94.22;99389.69;109006;1257;72559;-71
2023/02/04 04:29:37;;;;;;;5.70;3.80;;;;;;;-0.64;93.95;99390.99;109110;1257;59484;-73
2023/02/04 04:32:06;;;;;;;5.40;4.40;;;;;;;-0.60;93.60;99394.94;109145;1257;60666;-72
2023/02/04 04:34:34;;;;;;;5.90;4.70;;;;;;;-0.57;93.60;99398.14;109112;1257;73179;-75
2023/02/04 04:37:03;;;;;;;7.10;4.90;;;;;;;-0.55;93.54;99399.95;109151;1257;67158;-74
2023/02/04 04:39:31;;;;;;;3.90;3.50;;;;;;;-0.54;93.44;99398.80;109071;1257;72186;-71
2023/02/04 04:41:58;;;;;;;7.70;5.30;;;;;;;-0.55;93.06;99401.77;109100;1257;59577;-75
2023/02/04 04:44:27;;;;;;;6.00;4.30;;;;;;;-0.60;92.93;99404.33;109116;1257;59133;-72
2023/02/04 04:46:55;;;;;;;6.50;5.10;;;;;;;-0.65;93.04;99403.29;109125;1257;74163;-72
2023/02/04 04:49:23;;;;;;;6.10;4.50;;;;;;;-0.64;93.31;99407.77;109104;1257;68132;-70
2023/02/04 04:51:51;;;;;;;6.20;4.00;;;;;;;-0.63;93.24;99409.37;109084;1257;72855;-74
2023/02/04 04:54:19;;;;;;;5.30;4.10;;;;;;;-0.64;93.14;99408.66;109096;1257;58587;-76
2023/02/04 04:56:47;;;;;;;6.90;5.10;;;;;;;-0.67;93.24;99409.19;109026;1257;61126;-74
2023/02/04 04:59:15;;;;;;;6.20;5.00;;;;;;;-0.67;93.30;99410.62;109139;1257;74817;-74
2023/02/04 05:01:44;;;;;;;5.60;4.70;;;;;;;-0.72;93.05;99411.70;107623;1257;1002511;-75
2023/02/04 05:04:13;;;;;;;5.10;4.40;;;;;;;-0.74;93.22;99410.27;109083;1257;73011;-73
2023/02/04 05:06:41;;;;;;;7.10;3.70;;;;;;;-0.74;93.36;99411.80;109109;1257;60561;-72
2023/02/04 05:09:09;;;;;;;6.40;4.60;;;;;;;-0.75;93.32;99415.50;109115;1257;59474;-73
2023/02/04 05:11:37;;;;;;;5.30;4.00;;;;;;;-0.79;93.49;99417.86;109053;1257;72551;-73
2023/02/04 05:14:06;;;;;;;7.80;4.90;;;;;;;-0.80;93.63;99417.59;109112;1257;66176;-74
2023/02/04 05:16:34;;;;;;;5.70;5.20;;;;;;;-0.79;93.63;99420.54;109110;1257;70680;-72
2023/02/04 05:19:03;;;;;;;7.50;4.90;;;;;;;-0.77;94.01;99422.02;109099;1257;62310;-75
2023/02/04 05:21:32;;;;;;;5.70;5.10;;;;;;;-0.73;94.29;99426.13;109134;1257;59901;-74
2023/02/04 05:24:01;;;;;;;7.40;4.70;;;;;;;-0.71;94.21;99429.00;109133;1257;73735;-74
2023/02/04 05:26:29;;;;;;;4.60;3.90;;;;;;;-0.70;94.06;99434.84;109109;1257;68271;-71
2023/02/04 05:29:01;;;;;;;6.70;4.60;;;;;;;-0.69;94.11;99438.00;109062;1258;71777;-72
2023/02/04 05:31:31;;;;;;;8.10;5.40;;;;;;;-0.71;93.99;99444.60;109079;1259;60725;-72
2023/02/04 05:34:00;;;;;;;8.00;4.60;;;;;;;-0.76;94.13;99449.73;109110;1258;58060;-73
2023/02/04 05:36:29;;;;;;;5.90;4.30;;;;;;;-0.79;94.26;99457.16;109060;1257;73654;-69
2023/02/04 05:38:57;;;;;;;5.20;4.70;;;;;;;-0.79;94.33;99458.91;109088;1259;67059;-72
2023/02/04 05:41:25;;;;;;;5.00;4.10;;;;;;;-0.77;94.67;99458.86;109012;1258;74007;-74
2023/02/04 05:43:53;;;;;;;4.90;4.50;;;;;;;-0.73;94.75;99461.35;109092;1258;59961;-72
2023/02/04 05:46:21;;;;;;;7.10;4.70;;;;;;;-0.68;94.88;99465.65;109105;1258;59040;-72
2023/02/04 05:48:49;;;;;;;4.30;3.90;;;;;;;-0.65;94.76;99468.48;109086;1258;73650;-73
2023/02/04 05:51:17;;;;;;;4.30;3.70;;;;;;;-0.67;94.59;99469.08;109122;1258;67525;-72
2023/02/04 05:53:46;;;;;;;5.00;4.50;;;;;;;-0.69;94.55;99469.13;109064;1258;71169;-75
2023/02/04 05:56:14;;;;;;;6.70;4.80;;;;;;;-0.72;94.68;99480.17;109011;1259;61887;-75
2023/02/04 05:58:42;;;;;;;5.70;4.40;;;;;;;-0.74;94.82;99483.98;109090;1259;60956;-75
2023/02/04 06:01:12;;;;;;;4.50;4.10;;;;;;;-0.74;95.06;99490.30;109089;1258;71373;-73
2023/02/04 06:03:40;;;;;;;4.90;4.10;;;;;;;-0.71;95.24;99496.41;109065;1257;69300;-74
2023/02/04 06:06:09;;;;;;;4.60;4.00;;;;;;;-0.68;95.19;99499.48;109090;1258;72775;-74
2023/02/04 06:08:37;;;;;;;4.50;3.70;;;;;;;-0.66;95.47;99504.01;109041;1259;58416;-74
2023/02/04 06:11:06;;;;;;;5.80;4.50;;;;;;;-0.67;95.28;99503.08;109040;1259;59794;-74
2023/02/04 06:13:34;;;;;;;4.50;4.10;;;;;;;-0.72;95.50;99500.45;109096;1259;73057;-75
2023/02/04 06:16:03;;;;;;;5.60;3.70;;;;;;;-0.77;95.54;99496.64;109131;1258;67150;-75
2023/02/04 06:18:32;;;;;;;5.60;3.70;;;;;;;-0.80;95.73;99497.33;109052;1259;73116;-76
2023/02/04 06:21:03;;;;;;;5.50;5.00;;;;;;;-0.79;95.91;99500.39;109027;1259;61176;-75
2023/02/04 06:23:33;;;;;;;6.40;4.30;;;;;;;-0.79;96.20;99502.94;109001;1258;60325;-75
2023/02/04 06:26:02;;;;;;;7.20;4.20;;;;;;;-0.78;96.31;99509.39;109026;1258;74658;-75
2023/02/04 06:28:30;;;;;;;5.40;5.00;;;;;;;-0.75;96.46;99505.75;108984;1258;67957;-76
2023/02/04 06:30:58;;;;;;;5.40;3.80;;;;;;;-0.74;96.55;99504.80;109055;1258;71779;-75
2023/02/04 06:33:26;;;;;;;5.00;3.80;;;;;;;-0.75;96.55;99504.70;109040;1258;61402;-74
2023/02/04 06:35:54;;;;;;;4.50;3.70;;;;;;;-0.76;96.74;99507.94;109078;1258;58546;-75
2023/02/04 06:38:25;;;;;;;3.30;3.00;;;;;;;-0.77;96.65;99509.48;109115;1258;73880;-77
2023/02/04 06:40:54;;;;;;;4.20;3.80;;;;;;;-0.76;97.07;99514.44;109028;1258;67750;-74
2023/02/04 06:43:24;;;;;;;4.70;3.80;;;;;;;-0.75;97.21;99517.58;109058;1259;71653;-74
2023/02/04 06:45:53;;;;;;;5.40;4.50;;;;;;;-0.85;97.45;99523.31;109038;1259;61161;-74
2023/02/04 06:48:21;;;;;;;7.90;5.00;;;;;;;-0.85;97.61;99524.95;109184;1260;58624;-76
2023/02/04 06:50:51;;;;;;;8.40;4.80;;;;;;;-0.82;97.74;99527.43;109406;1258;71653;-73
2023/02/04 06:53:19;;;;;;;4.30;3.90;;;;;;;-0.81;97.77;99528.83;109205;1258;67825;-74
2023/02/04 06:55:48;;;;;;;4.90;4.40;;;;;;;-0.77;97.91;99526.61;109158;1258;72861;-76
2023/02/04 06:58:16;;;;;;;9.50;4.60;;;;;;;-0.75;97.77;99532.68;108990;1258;61095;-78
2023/02/04 07:00:44;;;;;;;4.70;3.80;;;;;;;-0.74;97.95;99532.71;109179;1260;60963;-75
2023/02/04 07:03:13;;;;;;;6.10;5.20;;;;;;;-0.73;97.80;99540.50;109018;1259;73814;-74
2023/02/04 07:05:50;;;;;;;5.40;4.90;;;;;;;-0.71;97.94;99538.65;109094;1259;67573;-74
2023/02/04 07:08:18;;;;;;;5.70;5.20;;;;;;;-0.66;97.92;99540.91;109047;1259;73575;-78
2023/02/04 07:10:47;;;;;;;5.70;4.30;;;;;;;-0.61;98.03;99542.77;108941;1258;58418;-77
2023/02/04 07:13:19;;;;;;;4.90;4.30;;;;;;;-0.56;97.93;99543.87;109032;1259;59409;-76
2023/02/04 07:15:48;;;;;;;5.10;4.50;;;;;;;-0.55;97.56;99542.74;109074;1258;73197;-76
2023/02/04 07:18:18;;;;;;;4.30;3.70;;;;;;;-0.57;97.06;99548.64;108954;1259;67700;-76
2023/02/04 07:20:51;;;;;;;4.00;3.60;;;;;;;-0.61;96.83;99549.96;109018;1259;73387;-75
2023/02/04 07:23:19;;;;;;;3.50;3.20;;;;;;;-0.61;96.92;99550.48;108889;1265;61496;-71
2023/02/04 07:25:47;;;;;;;4.70;4.30;;;;;;;-0.59;96.90;99553.81;109025;1259;59797;-71
2023/02/04 07:28:16;;;;;;;4.10;3.50;;;;;;;-0.56;96.89;99560.48;109002;1259;71893;-75
2023/02/04 07:30:44;;;;;;;4.80;3.70;;;;;;;-0.55;96.59;99560.36;109068;1259;66117;-73
2023/02/04 07:33:12;;;;;;;5.90;4.00;;;;;;;-0.54;96.66;99557.55;109036;1260;72860;-72
2023/02/04 07:35:40;;;;;;;5.40;4.10;;;;;;;-0.54;96.15;99555.59;109010;1260;60022;-68
2023/02/04 07:38:09;;;;;;;3.40;3.10;;;;;;;-0.54;96.01;99559.38;109041;1260;59998;-68
2023/02/04 07:40:38;;;;;;;3.70;3.40;;;;;;;-0.54;95.76;99563.64;108858;1260;73625;-67
2023/02/04 07:43:07;;;;;;;6.20;4.40;;;;;;;-0.60;95.09;99562.89;109006;1260;67297;-68
2023/02/04 07:45:35;;;;;;;5.10;4.40;;;;;;;-0.64;95.06;99565.85;109040;1259;72568;-68
2023/02/04 07:48:03;;;;;;;4.40;4.00;;;;;;;-0.62;95.17;99568.75;109010;1260;60209;-70
2023/02/04 07:50:32;;;;;;;5.90;5.10;;;;;;;-0.60;94.75;99564.71;109016;1258;60984;-73
2023/02/04 07:53:01;;;;;;;4.80;4.40;;;;;;;-0.64;94.24;99566.20;109076;1258;74101;-71
2023/02/04 07:55:29;;;;;;;5.10;4.60;;;;;;;-0.67;94.07;99564.98;109033;1258;69219;-71
2023/02/04 07:57:57;;;;;;;3.90;3.40;;;;;;;-0.67;94.15;99572.91;109070;1258;70884;-77
2023/02/04 08:00:26;;;;;;;5.10;3.40;;;;;;;-0.69;93.80;99574.77;109076;1258;59040;-72
2023/02/04 08:02:54;;;;;;;3.60;3.20;;;;;;;-0.71;93.82;99574.95;109141;1258;59701;-71
2023/02/04 08:05:22;;;;;;;3.50;3.00;;;;;;;-0.72;93.69;99577.76;109253;1260;73911;-71
2023/02/04 08:09:59;;;;;;;5.60;3.10;;;;;;;-0.70;93.58;99580.46;102913;1291;600991;-75
2023/02/04 08:12:28;;;;;;;6.70;3.90;;;;;;;-0.72;93.58;99581.89;105379;1271;59430;-71
2023/02/04 08:14:56;;;;;;;4.30;3.30;;;;;;;-0.68;93.67;99582.55;106087;1259;60848;-72
2023/02/04 08:17:24;;;;;;;3.50;3.20;;;;;;;-0.65;93.69;99580.45;105948;1254;72679;-72
2023/02/04 08:19:52;;;;;;;4.00;3.30;;;;;;;-0.62;93.76;99584.08;106008;1259;66756;-71
2023/02/04 08:22:21;;;;;;;7.00;4.60;;;;;;;-0.63;93.69;99585.60;106172;1258;72499;-71
2023/02/04 08:24:50;;;;;;;4.00;3.60;;;;;;;-0.66;93.63;99585.97;105278;1264;613094;-68
2023/02/04 08:27:18;;;;;;;4.90;4.50;;;;;;;-0.72;93.53;99592.57;104013;1254;1003074;-68
2023/02/04 08:29:46;;;;;;;4.30;3.90;;;;;;;-0.77;93.73;99590.55;105545;1258;74061;-68
2023/02/04 08:32:16;;;;;;;4.10;3.70;;;;;;;-0.80;93.82;99597.73;105469;1268;68948;-70
2023/02/04 08:34:44;;;;;;;4.60;4.20;;;;;;;-0.81;93.93;99598.29;105892;1254;74422;-72
2023/02/04 08:37:14;;;;;;;4.80;4.40;;;;;;;-0.82;94.02;99597.45;105592;1258;60519;-75
2023/02/04 08:39:45;;;;;;;5.80;4.50;;;;;;;-0.83;93.99;99605.08;105921;1259;60432;-76
2023/02/04 08:42:14;;;;;;;5.70;4.80;;;;;;;-0.90;94.21;99608.30;106631;1258;72121;-72
2023/02/04 08:44:42;;;;;;;4.10;3.80;;;;;;;-0.96;94.29;99605.11;106766;1254;69625;-74
2023/02/04 08:47:10;;;;;;;6.80;5.30;;;;;;;-0.93;94.49;99612.95;106767;1259;73762;-79
2023/02/04 08:49:39;;;;;;;5.10;4.20;;;;;;;-0.87;94.62;99614.22;106663;1261;62410;-77
2023/02/04 08:52:09;;;;;;;3.90;3.60;;;;;;;-0.80;94.72;99613.92;106751;1254;59887;-77
2023/02/04 08:54:53;;;;;;;8.10;6.80;;;;;;;-0.76;94.34;99615.59;106442;1254;74922;-80
2023/02/04 08:57:24;;;;;;;5.40;4.90;;;;;;;-0.74;94.45;99614.07;106553;1260;68239;-75
2023/02/04 08:59:52;;;;;;;6.20;4.50;;;;;;;-0.68;94.59;99619.73;106608;1255;73502;-76
2023/02/04 09:02:20;;;;;;;5.90;4.40;;;;;;;-0.67;94.52;99622.84;106471;1254;62654;-64
2023/02/04 09:04:48;;;;;;;4.90;4.40;;;;;;;-0.65;94.39;99627.09;105742;1256;62454;-63
2023/02/04 09:07:17;;;;;;;3.30;3.00;;;;;;;-0.66;94.23;99622.80;105668;1257;72375;-65
2023/02/04 09:09:45;;;;;;;4.60;4.20;;;;;;;-0.72;94.24;99624.87;105587;1258;68000;-67
2023/02/04 09:12:18;;;;;;;4.10;3.80;;;;;;;-0.81;94.20;99621.80;105491;1254;72515;-66
2023/02/04 09:14:47;;;;;;;4.50;3.40;;;;;;;-0.79;94.57;99625.23;105595;1258;61139;-67
2023/02/04 09:17:15;;;;;;;5.00;4.60;;;;;;;-0.73;94.81;99624.84;105407;1258;61717;-67
2023/02/04 09:19:43;;;;;;;4.10;3.60;;;;;;;-0.72;94.88;99619.79;105406;1254;72677;-68
2023/02/04 09:22:14;;;;;;;4.00;3.60;;;;;;;-0.72;94.76;99622.59;105484;1254;68223;-66
2023/02/04 09:24:42;;;;;;;3.30;3.00;;;;;;;-0.73;94.53;99620.23;105373;1257;72729;-68
2023/02/04 09:27:10;;;;;;;4.10;3.70;;;;;;;-0.78;94.76;99620.14;105502;1254;61271;-67
2023/02/04 09:29:39;;;;;;;5.80;4.80;;;;;;;-0.82;94.97;99616.55;105551;1257;60066;-66
2023/02/04 09:32:07;;;;;;;4.90;4.30;;;;;;;-0.75;95.25;99615.30;105341;1259;71453;-68
2023/02/04 09:34:35;;;;;;;4.20;3.80;;;;;;;-0.69;95.53;99619.77;105433;1254;69190;-67
2023/02/04 09:37:04;;;;;;;3.30;3.10;;;;;;;-0.62;95.55;99620.20;105552;1254;72691;-67
2023/02/04 09:39:32;;;;;;;4.10;3.50;;;;;;;-0.59;95.16;99620.57;105421;1260;60429;-65
2023/02/04 09:42:00;;;;;;;4.40;4.00;;;;;;;-0.61;94.98;99621.95;105535;1254;60495;-68
2023/02/04 09:44:29;;;;;;;4.40;4.00;;;;;;;-0.64;94.82;99619.13;105276;1260;72516;-65
2023/02/04 09:46:58;;;;;;;4.00;3.60;;;;;;;-0.65;94.85;99621.77;105321;1259;68690;-66
2023/02/04 09:49:27;;;;;;;3.70;3.40;;;;;;;-0.64;94.98;99622.23;105380;1257;73321;-68
2023/02/04 12:20:14;;;;;;;5.40;4.90;;;;;;;-1.33;89.26;99760.36;102287;1294;600569;-68
2023/02/04 12:22:42;;;;;;;4.80;4.40;;;;;;;-1.33;88.34;99773.04;105411;1259;62392;-65
2023/02/04 12:25:15;;;;;;;4.40;4.00;;;;;;;-1.30;87.35;99776.48;105355;1257;61774;-66
2023/02/04 12:27:44;;;;;;;6.20;4.50;;;;;;;-1.26;86.52;99769.13;105018;1264;73783;-67
2023/02/04 12:30:13;;;;;;;5.10;4.30;;;;;;;-1.20;86.69;99774.90;105198;1261;70217;-65
2023/02/04 12:32:41;;;;;;;4.20;3.80;;;;;;;-1.09;86.27;99773.65;104859;1256;630365;-66
2023/02/04 12:35:09;;;;;;;4.40;4.10;;;;;;;-0.99;85.40;99786.54;105266;1258;59976;-68
2023/02/04 12:37:40;;;;;;;3.90;3.60;;;;;;;-0.95;82.12;99785.77;105352;1255;60161;-69
2023/02/04 12:40:14;;;;;;;4.10;3.50;;;;;;;-0.95;80.72;99781.27;105213;1261;72320;-66
2023/02/04 12:42:43;;;;;;;3.80;3.50;;;;;;;-0.95;81.35;99780.01;105367;1256;68939;-67
2023/02/04 12:45:13;;;;;;;4.90;4.50;;;;;;;-0.95;81.27;99788.55;105161;1260;74275;-65
2023/02/04 12:47:42;;;;;;;4.10;3.80;;;;;;;-0.97;81.29;99791.29;103717;1256;1003648;-65
2023/02/04 12:50:21;;;;;;;6.40;3.50;;;;;;;-0.97;81.64;99794.13;105298;1258;60615;-68
2023/02/04 12:52:54;;;;;;;4.10;3.80;;;;;;;-1.01;81.46;99795.45;105224;1256;74608;-68
2023/02/04 12:55:25;;;;;;;4.50;4.10;;;;;;;-1.04;81.72;99802.42;105217;1255;69756;-71
2023/02/04 12:57:55;;;;;;;9.50;4.90;;;;;;;-1.06;81.71;99798.45;105552;1256;73585;-64
2023/02/04 13:00:23;;;;;;;7.20;4.00;;;;;;;-1.16;80.79;99808.39;105235;1256;61298;-75
2023/02/04 13:02:53;;;;;;;5.90;4.30;;;;;;;-1.25;80.67;99810.67;105730;1256;61051;-77
2023/02/04 13:05:22;;;;;;;4.80;4.30;;;;;;;-1.27;81.24;99813.23;105639;1258;72594;-77
2023/02/04 13:07:50;;;;;;;4.10;3.60;;;;;;;-1.30;80.69;99822.71;105664;1255;69333;-77
2023/02/04 13:10:18;;;;;;;9.20;5.30;;;;;;;-1.33;80.65;99818.71;105597;1254;72948;-77
2023/02/04 13:12:50;;;;;;;4.30;3.70;;;;;;;-1.34;80.33;99818.67;105582;1256;59944;-77
2023/02/04 13:15:18;;;;;;;3.40;3.10;;;;;;;-1.36;79.30;99827.03;105462;1261;61315;-74
2023/02/04 13:17:48;;;;;;;8.00;4.10;;;;;;;-1.43;79.33;99823.02;105679;1256;71328;-74
2023/02/04 13:20:16;;;;;;;3.60;3.30;;;;;;;-1.46;78.96;99831.13;105547;1256;68922;-75
2023/02/04 13:22:45;;;;;;;3.80;3.50;;;;;;;-1.46;79.24;99831.95;105655;1256;73415;-75
2023/02/04 13:25:13;;;;;;;3.30;3.10;;;;;;;-1.46;78.51;99837.59;105688;1256;62186;-73
2023/02/04 13:27:42;;;;;;;4.10;3.70;;;;;;;-1.43;78.45;99835.34;105706;1256;59693;-75
2023/02/04 13:30:12;;;;;;;4.20;3.80;;;;;;;-1.38;78.62;99837.63;105547;1261;72783;-74
2023/02/04 13:32:42;;;;;;;3.90;3.20;;;;;;;-1.37;77.41;99843.06;105756;1260;67848;-78
2023/02/04 13:35:11;;;;;;;3.60;3.30;;;;;;;-1.41;76.69;99845.81;105601;1261;72174;-78
2023/02/04 13:37:39;;;;;;;4.30;3.90;;;;;;;-1.42;77.02;99848.27;105632;1256;60454;-78
2023/02/04 13:40:08;;;;;;;3.60;3.10;;;;;;;-1.44;76.39;99854.66;105640;1256;60761;-78
2023/02/04 13:42:38;;;;;;;4.20;3.60;;;;;;;-1.49;75.73;99862.38;105643;1262;73632;-74
2023/02/04 13:45:11;;;;;;;3.60;3.30;;;;;;;-1.52;75.76;99865.58;105649;1256;70188;-74
2023/02/04 13:47:39;;;;;;;;;;;;;;;-1.53;76.02;99877.77;105508;1261;72580;-75
2023/02/04 13:50:07;;;;;;;4.10;3.30;;;;;;;-1.55;75.82;99882.44;105661;1255;59674;-76
2023/02/04 13:52:36;;;;;;;4.20;3.00;;;;;;;-1.56;76.07;99876.57;105679;1256;62159;-81
2023/02/04 13:55:05;;;;;;;4.90;4.10;;;;;;;-1.58;75.56;99880.83;105563;1257;74382;-73
2023/02/04 13:57:33;;;;;;;6.40;3.80;;;;;;;-1.63;75.37;99882.61;105716;1260;68727;-76
2023/02/04 14:00:01;;;;;;;6.00;4.90;;;;;;;-1.66;75.78;99876.74;105660;1256;74550;-77
2023/02/04 14:02:41;;;;;;;5.00;4.40;;;;;;;-1.68;75.91;99879.95;105501;1256;61322;-77